sensor_id;sensor_type;location;lat;lon;timestamp;P1;durP1;ratioP1;P2;durP2;ratioP2
26335;SDS011;14047;50.936;4.654;2022-07-04T00:00:29;4.03;;;2.45;;
26335;SDS011;14047;50.936;4.654;2022-07-04T00:02:55;6.88;;;2.42;;
26335;SDS011;14047;50.936;4.654;2022-07-04T00:05:20;4.78;;;2.88;;
26335;SDS011;14047;50.936;4.654;2022-07-04T00:07:47;5.30;;;2.72;;
26335;SDS011;14047;50.936;4.654;2022-07-04T00:10:14;7.68;;;2.80;;
26335;SDS011;14047;50.936;4.654;2022-07-04T00:12:43;4.03;;;2.92;;
26335;SDS011;14047;50.936;4.654;2022-07-04T00:15:09;6.75;;;3.17;;
26335;SDS011;14047;50.936;4.654;2022-07-04T00:17:35;4.78;;;3.47;;
26335;SDS011;14047;50.936;4.654;2022-07-04T00:20:02;13.05;;;3.53;;
26335;SDS011;14047;50.936;4.654;2022-07-04T00:22:31;8.82;;;2.78;;
26335;SDS011;14047;50.936;4.654;2022-07-04T00:24:57;6.18;;;2.53;;
26335;SDS011;14047;50.936;4.654;2022-07-04T00:27:23;7.75;;;3.05;;
26335;SDS011;14047;50.936;4.654;2022-07-04T00:29:49;4.10;;;2.63;;
26335;SDS011;14047;50.936;4.654;2022-07-04T00:32:15;5.15;;;2.22;;
26335;SDS011;14047;50.936;4.654;2022-07-04T00:34:40;9.43;;;2.80;;
26335;SDS011;14047;50.936;4.654;2022-07-04T00:37:06;4.57;;;2.83;;
26335;SDS011;14047;50.936;4.654;2022-07-04T00:39:32;8.05;;;3.08;;
26335;SDS011;14047;50.936;4.654;2022-07-04T00:41:57;7.55;;;3.00;;
26335;SDS011;14047;50.936;4.654;2022-07-04T00:44:23;8.68;;;4.40;;
26335;SDS011;14047;50.936;4.654;2022-07-04T00:46:49;7.85;;;3.20;;
26335;SDS011;14047;50.936;4.654;2022-07-04T00:49:15;8.65;;;3.20;;
26335;SDS011;14047;50.936;4.654;2022-07-04T00:51:42;8.68;;;3.08;;
26335;SDS011;14047;50.936;4.654;2022-07-04T00:54:10;10.60;;;3.60;;
26335;SDS011;14047;50.936;4.654;2022-07-04T00:56:38;9.98;;;4.60;;
26335;SDS011;14047;50.936;4.654;2022-07-04T00:59:05;8.45;;;3.08;;
26335;SDS011;14047;50.936;4.654;2022-07-04T01:01:31;4.50;;;2.80;;
26335;SDS011;14047;50.936;4.654;2022-07-04T01:03:57;6.20;;;3.55;;
26335;SDS011;14047;50.936;4.654;2022-07-04T01:06:23;8.20;;;2.65;;
26335;SDS011;14047;50.936;4.654;2022-07-04T01:08:49;7.13;;;2.83;;
26335;SDS011;14047;50.936;4.654;2022-07-04T01:11:15;6.70;;;2.92;;
26335;SDS011;14047;50.936;4.654;2022-07-04T01:13:42;7.95;;;3.20;;
26335;SDS011;14047;50.936;4.654;2022-07-04T01:16:09;8.40;;;3.35;;
26335;SDS011;14047;50.936;4.654;2022-07-04T01:18:36;10.25;;;3.20;;
26335;SDS011;14047;50.936;4.654;2022-07-04T01:21:02;4.68;;;3.58;;
26335;SDS011;14047;50.936;4.654;2022-07-04T01:23:29;7.28;;;3.08;;
26335;SDS011;14047;50.936;4.654;2022-07-04T01:25:56;6.95;;;3.50;;
26335;SDS011;14047;50.936;4.654;2022-07-04T01:28:22;6.53;;;2.83;;
26335;SDS011;14047;50.936;4.654;2022-07-04T01:30:49;7.53;;;2.60;;
26335;SDS011;14047;50.936;4.654;2022-07-04T01:33:15;9.45;;;2.67;;
26335;SDS011;14047;50.936;4.654;2022-07-04T01:35:45;4.32;;;2.40;;
26335;SDS011;14047;50.936;4.654;2022-07-04T01:38:12;4.40;;;2.63;;
26335;SDS011;14047;50.936;4.654;2022-07-04T01:40:37;8.13;;;2.70;;
26335;SDS011;14047;50.936;4.654;2022-07-04T01:43:03;3.88;;;2.22;;
26335;SDS011;14047;50.936;4.654;2022-07-04T01:45:29;3.47;;;2.05;;
26335;SDS011;14047;50.936;4.654;2022-07-04T01:47:58;6.53;;;2.45;;
26335;SDS011;14047;50.936;4.654;2022-07-04T01:50:24;7.57;;;2.80;;
26335;SDS011;14047;50.936;4.654;2022-07-04T01:52:49;4.32;;;3.03;;
26335;SDS011;14047;50.936;4.654;2022-07-04T01:55:15;3.75;;;2.28;;
26335;SDS011;14047;50.936;4.654;2022-07-04T01:57:40;4.63;;;2.05;;
26335;SDS011;14047;50.936;4.654;2022-07-04T02:00:07;4.38;;;2.40;;
26335;SDS011;14047;50.936;4.654;2022-07-04T02:02:52;6.28;;;2.60;;
26335;SDS011;14047;50.936;4.654;2022-07-04T02:05:18;4.32;;;2.50;;
26335;SDS011;14047;50.936;4.654;2022-07-04T02:07:44;5.47;;;2.13;;
26335;SDS011;14047;50.936;4.654;2022-07-04T02:10:10;3.40;;;2.30;;
26335;SDS011;14047;50.936;4.654;2022-07-04T02:12:36;3.70;;;2.47;;
26335;SDS011;14047;50.936;4.654;2022-07-04T02:15:20;5.80;;;2.83;;
26335;SDS011;14047;50.936;4.654;2022-07-04T02:17:46;9.10;;;2.97;;
26335;SDS011;14047;50.936;4.654;2022-07-04T02:20:13;5.97;;;2.55;;
26335;SDS011;14047;50.936;4.654;2022-07-04T02:22:39;4.88;;;2.60;;
26335;SDS011;14047;50.936;4.654;2022-07-04T02:25:05;5.88;;;2.85;;
26335;SDS011;14047;50.936;4.654;2022-07-04T02:27:31;4.82;;;2.67;;
26335;SDS011;14047;50.936;4.654;2022-07-04T02:29:57;8.63;;;2.60;;
26335;SDS011;14047;50.936;4.654;2022-07-04T02:32:22;10.20;;;2.38;;
26335;SDS011;14047;50.936;4.654;2022-07-04T02:34:48;4.75;;;2.30;;
26335;SDS011;14047;50.936;4.654;2022-07-04T02:37:14;5.32;;;2.88;;
26335;SDS011;14047;50.936;4.654;2022-07-04T02:39:40;6.40;;;2.55;;
26335;SDS011;14047;50.936;4.654;2022-07-04T02:42:05;7.20;;;2.90;;
26335;SDS011;14047;50.936;4.654;2022-07-04T02:44:31;4.93;;;2.38;;
26335;SDS011;14047;50.936;4.654;2022-07-04T02:46:57;7.18;;;3.22;;
26335;SDS011;14047;50.936;4.654;2022-07-04T02:49:23;6.88;;;3.38;;
26335;SDS011;14047;50.936;4.654;2022-07-04T02:51:48;8.75;;;2.85;;
26335;SDS011;14047;50.936;4.654;2022-07-04T02:54:14;9.82;;;3.47;;
26335;SDS011;14047;50.936;4.654;2022-07-04T02:56:40;7.70;;;3.97;;
26335;SDS011;14047;50.936;4.654;2022-07-04T02:59:06;10.50;;;3.70;;
26335;SDS011;14047;50.936;4.654;2022-07-04T03:01:32;5.22;;;3.55;;
26335;SDS011;14047;50.936;4.654;2022-07-04T03:03:58;10.05;;;3.60;;
26335;SDS011;14047;50.936;4.654;2022-07-04T03:06:23;11.13;;;4.03;;
26335;SDS011;14047;50.936;4.654;2022-07-04T03:08:49;7.22;;;3.80;;
26335;SDS011;14047;50.936;4.654;2022-07-04T03:11:15;6.20;;;3.55;;
26335;SDS011;14047;50.936;4.654;2022-07-04T03:13:40;10.68;;;3.42;;
26335;SDS011;14047;50.936;4.654;2022-07-04T03:16:06;8.25;;;3.15;;
26335;SDS011;14047;50.936;4.654;2022-07-04T03:18:32;5.00;;;2.97;;
26335;SDS011;14047;50.936;4.654;2022-07-04T03:20:58;7.97;;;3.20;;
26335;SDS011;14047;50.936;4.654;2022-07-04T03:23:24;10.98;;;3.97;;
26335;SDS011;14047;50.936;4.654;2022-07-04T03:25:49;8.93;;;4.13;;
26335;SDS011;14047;50.936;4.654;2022-07-04T03:28:15;6.82;;;4.57;;
26335;SDS011;14047;50.936;4.654;2022-07-04T03:30:41;8.25;;;4.53;;
26335;SDS011;14047;50.936;4.654;2022-07-04T03:33:06;12.90;;;4.78;;
26335;SDS011;14047;50.936;4.654;2022-07-04T03:35:32;9.70;;;4.43;;
26335;SDS011;14047;50.936;4.654;2022-07-04T03:37:58;12.85;;;4.57;;
26335;SDS011;14047;50.936;4.654;2022-07-04T03:40:23;11.45;;;4.50;;
26335;SDS011;14047;50.936;4.654;2022-07-04T03:42:49;14.02;;;4.40;;
26335;SDS011;14047;50.936;4.654;2022-07-04T03:45:15;13.13;;;4.10;;
26335;SDS011;14047;50.936;4.654;2022-07-04T03:47:41;9.55;;;3.88;;
26335;SDS011;14047;50.936;4.654;2022-07-04T03:50:07;8.95;;;4.10;;
26335;SDS011;14047;50.936;4.654;2022-07-04T03:52:33;9.27;;;4.40;;
26335;SDS011;14047;50.936;4.654;2022-07-04T03:54:59;12.68;;;4.43;;
26335;SDS011;14047;50.936;4.654;2022-07-04T03:57:24;7.45;;;3.80;;
26335;SDS011;14047;50.936;4.654;2022-07-04T03:59:50;18.65;;;4.38;;
26335;SDS011;14047;50.936;4.654;2022-07-04T04:02:16;11.80;;;4.05;;
26335;SDS011;14047;50.936;4.654;2022-07-04T04:04:41;12.73;;;3.90;;
26335;SDS011;14047;50.936;4.654;2022-07-04T04:07:26;9.02;;;4.00;;
26335;SDS011;14047;50.936;4.654;2022-07-04T04:09:51;8.88;;;4.40;;
26335;SDS011;14047;50.936;4.654;2022-07-04T04:12:17;9.13;;;3.97;;
26335;SDS011;14047;50.936;4.654;2022-07-04T04:14:43;6.82;;;3.33;;
26335;SDS011;14047;50.936;4.654;2022-07-04T04:17:09;8.02;;;3.35;;
26335;SDS011;14047;50.936;4.654;2022-07-04T04:19:34;8.98;;;3.40;;
26335;SDS011;14047;50.936;4.654;2022-07-04T04:22:00;7.30;;;3.53;;
26335;SDS011;14047;50.936;4.654;2022-07-04T04:24:26;9.18;;;3.30;;
26335;SDS011;14047;50.936;4.654;2022-07-04T04:26:52;6.53;;;3.40;;
26335;SDS011;14047;50.936;4.654;2022-07-04T04:29:17;10.75;;;3.15;;
26335;SDS011;14047;50.936;4.654;2022-07-04T04:31:43;6.10;;;2.92;;
26335;SDS011;14047;50.936;4.654;2022-07-04T04:34:09;9.55;;;3.28;;
26335;SDS011;14047;50.936;4.654;2022-07-04T04:36:34;7.63;;;3.22;;
26335;SDS011;14047;50.936;4.654;2022-07-04T04:39:00;5.38;;;2.50;;
26335;SDS011;14047;50.936;4.654;2022-07-04T04:41:26;8.38;;;2.80;;
26335;SDS011;14047;50.936;4.654;2022-07-04T04:43:51;4.65;;;2.38;;
26335;SDS011;14047;50.936;4.654;2022-07-04T04:46:17;10.70;;;2.70;;
26335;SDS011;14047;50.936;4.654;2022-07-04T04:48:43;6.03;;;2.55;;
26335;SDS011;14047;50.936;4.654;2022-07-04T04:51:09;6.03;;;2.50;;
26335;SDS011;14047;50.936;4.654;2022-07-04T04:53:35;9.45;;;2.60;;
26335;SDS011;14047;50.936;4.654;2022-07-04T04:56:01;6.00;;;2.55;;
26335;SDS011;14047;50.936;4.654;2022-07-04T04:58:27;3.83;;;1.92;;
26335;SDS011;14047;50.936;4.654;2022-07-04T05:00:53;9.68;;;2.45;;
26335;SDS011;14047;50.936;4.654;2022-07-04T05:03:19;5.85;;;2.25;;
26335;SDS011;14047;50.936;4.654;2022-07-04T05:05:45;7.82;;;2.67;;
26335;SDS011;14047;50.936;4.654;2022-07-04T05:08:11;5.55;;;1.88;;
26335;SDS011;14047;50.936;4.654;2022-07-04T05:10:37;9.68;;;2.20;;
26335;SDS011;14047;50.936;4.654;2022-07-04T05:13:06;7.25;;;2.33;;
26335;SDS011;14047;50.936;4.654;2022-07-04T05:15:32;9.88;;;2.83;;
26335;SDS011;14047;50.936;4.654;2022-07-04T05:17:58;15.05;;;2.95;;
26335;SDS011;14047;50.936;4.654;2022-07-04T05:20:24;8.80;;;2.13;;
26335;SDS011;14047;50.936;4.654;2022-07-04T05:22:49;5.57;;;2.30;;
26335;SDS011;14047;50.936;4.654;2022-07-04T05:25:15;9.38;;;2.30;;
26335;SDS011;14047;50.936;4.654;2022-07-04T05:27:41;5.25;;;1.60;;
26335;SDS011;14047;50.936;4.654;2022-07-04T05:30:07;4.70;;;1.92;;
26335;SDS011;14047;50.936;4.654;2022-07-04T05:32:34;3.70;;;1.42;;
26335;SDS011;14047;50.936;4.654;2022-07-04T05:35:02;12.43;;;1.77;;
26335;SDS011;14047;50.936;4.654;2022-07-04T05:37:28;6.53;;;1.40;;
26335;SDS011;14047;50.936;4.654;2022-07-04T05:39:54;5.07;;;1.60;;
26335;SDS011;14047;50.936;4.654;2022-07-04T05:42:20;7.95;;;1.58;;
26335;SDS011;14047;50.936;4.654;2022-07-04T05:44:45;9.13;;;1.63;;
26335;SDS011;14047;50.936;4.654;2022-07-04T05:47:11;3.00;;;1.73;;
26335;SDS011;14047;50.936;4.654;2022-07-04T05:49:36;4.28;;;1.60;;
26335;SDS011;14047;50.936;4.654;2022-07-04T05:52:02;3.72;;;1.55;;
26335;SDS011;14047;50.936;4.654;2022-07-04T05:54:28;4.93;;;1.63;;
26335;SDS011;14047;50.936;4.654;2022-07-04T05:56:53;5.43;;;1.50;;
26335;SDS011;14047;50.936;4.654;2022-07-04T05:59:19;3.85;;;1.77;;
26335;SDS011;14047;50.936;4.654;2022-07-04T06:01:45;3.53;;;1.27;;
26335;SDS011;14047;50.936;4.654;2022-07-04T06:04:11;3.08;;;1.10;;
26335;SDS011;14047;50.936;4.654;2022-07-04T06:06:36;7.50;;;1.20;;
26335;SDS011;14047;50.936;4.654;2022-07-04T06:09:02;5.35;;;1.00;;
26335;SDS011;14047;50.936;4.654;2022-07-04T06:11:28;6.20;;;1.30;;
26335;SDS011;14047;50.936;4.654;2022-07-04T06:13:55;5.13;;;1.30;;
26335;SDS011;14047;50.936;4.654;2022-07-04T06:16:21;5.28;;;1.23;;
26335;SDS011;14047;50.936;4.654;2022-07-04T06:18:46;6.72;;;2.00;;
26335;SDS011;14047;50.936;4.654;2022-07-04T06:21:12;5.32;;;1.23;;
26335;SDS011;14047;50.936;4.654;2022-07-04T06:23:38;2.50;;;0.90;;
26335;SDS011;14047;50.936;4.654;2022-07-04T06:26:03;6.00;;;1.23;;
26335;SDS011;14047;50.936;4.654;2022-07-04T06:28:29;4.90;;;1.00;;
26335;SDS011;14047;50.936;4.654;2022-07-04T06:30:55;3.35;;;1.00;;
26335;SDS011;14047;50.936;4.654;2022-07-04T06:33:21;5.93;;;1.20;;
26335;SDS011;14047;50.936;4.654;2022-07-04T06:35:47;6.47;;;1.35;;
26335;SDS011;14047;50.936;4.654;2022-07-04T06:38:25;7.05;;;1.00;;
26335;SDS011;14047;50.936;4.654;2022-07-04T06:40:53;6.32;;;1.05;;
26335;SDS011;14047;50.936;4.654;2022-07-04T06:43:20;3.20;;;1.08;;
26335;SDS011;14047;50.936;4.654;2022-07-04T06:45:46;2.80;;;0.93;;
26335;SDS011;14047;50.936;4.654;2022-07-04T06:48:11;6.20;;;0.88;;
26335;SDS011;14047;50.936;4.654;2022-07-04T06:50:37;6.40;;;0.90;;
26335;SDS011;14047;50.936;4.654;2022-07-04T06:53:03;3.95;;;0.98;;
26335;SDS011;14047;50.936;4.654;2022-07-04T06:55:30;5.15;;;1.13;;
26335;SDS011;14047;50.936;4.654;2022-07-04T06:57:57;4.72;;;1.00;;
26335;SDS011;14047;50.936;4.654;2022-07-04T07:00:23;8.93;;;1.30;;
26335;SDS011;14047;50.936;4.654;2022-07-04T07:02:49;2.75;;;0.90;;
26335;SDS011;14047;50.936;4.654;2022-07-04T07:05:14;5.72;;;1.33;;
26335;SDS011;14047;50.936;4.654;2022-07-04T07:07:40;7.18;;;1.05;;
26335;SDS011;14047;50.936;4.654;2022-07-04T07:10:06;3.92;;;1.05;;
26335;SDS011;14047;50.936;4.654;2022-07-04T07:12:33;5.15;;;1.10;;
26335;SDS011;14047;50.936;4.654;2022-07-04T07:14:59;4.93;;;1.30;;
26335;SDS011;14047;50.936;4.654;2022-07-04T07:17:25;7.35;;;1.00;;
26335;SDS011;14047;50.936;4.654;2022-07-04T07:19:52;5.05;;;1.27;;
26335;SDS011;14047;50.936;4.654;2022-07-04T07:22:20;9.52;;;1.20;;
26335;SDS011;14047;50.936;4.654;2022-07-04T07:24:46;9.35;;;1.40;;
26335;SDS011;14047;50.936;4.654;2022-07-04T07:27:12;7.05;;;1.42;;
26335;SDS011;14047;50.936;4.654;2022-07-04T07:29:38;3.88;;;1.10;;
26335;SDS011;14047;50.936;4.654;2022-07-04T07:32:04;6.50;;;1.23;;
26335;SDS011;14047;50.936;4.654;2022-07-04T07:34:30;9.07;;;1.30;;
26335;SDS011;14047;50.936;4.654;2022-07-04T07:36:56;4.25;;;1.10;;
26335;SDS011;14047;50.936;4.654;2022-07-04T07:39:22;6.63;;;1.00;;
26335;SDS011;14047;50.936;4.654;2022-07-04T07:41:48;6.20;;;1.00;;
26335;SDS011;14047;50.936;4.654;2022-07-04T07:44:14;4.72;;;1.38;;
26335;SDS011;14047;50.936;4.654;2022-07-04T07:46:40;6.10;;;1.13;;
26335;SDS011;14047;50.936;4.654;2022-07-04T07:49:06;5.55;;;1.17;;
26335;SDS011;14047;50.936;4.654;2022-07-04T07:51:31;2.58;;;0.90;;
26335;SDS011;14047;50.936;4.654;2022-07-04T07:53:57;6.38;;;1.00;;
26335;SDS011;14047;50.936;4.654;2022-07-04T07:56:23;8.30;;;1.13;;
26335;SDS011;14047;50.936;4.654;2022-07-04T07:58:49;6.60;;;0.73;;
26335;SDS011;14047;50.936;4.654;2022-07-04T08:01:15;6.80;;;1.00;;
26335;SDS011;14047;50.936;4.654;2022-07-04T08:03:41;5.30;;;0.80;;
26335;SDS011;14047;50.936;4.654;2022-07-04T08:06:25;6.03;;;0.90;;
26335;SDS011;14047;50.936;4.654;2022-07-04T08:08:51;3.55;;;0.90;;
26335;SDS011;14047;50.936;4.654;2022-07-04T08:11:16;6.78;;;0.82;;
26335;SDS011;14047;50.936;4.654;2022-07-04T08:13:42;5.90;;;1.00;;
26335;SDS011;14047;50.936;4.654;2022-07-04T08:16:08;4.65;;;1.08;;
26335;SDS011;14047;50.936;4.654;2022-07-04T08:18:34;7.35;;;1.13;;
26335;SDS011;14047;50.936;4.654;2022-07-04T08:21:00;1.67;;;0.55;;
26335;SDS011;14047;50.936;4.654;2022-07-04T08:23:26;4.75;;;0.88;;
26335;SDS011;14047;50.936;4.654;2022-07-04T08:25:54;6.47;;;1.10;;
26335;SDS011;14047;50.936;4.654;2022-07-04T08:28:19;4.75;;;0.90;;
26335;SDS011;14047;50.936;4.654;2022-07-04T08:30:45;5.07;;;0.95;;
26335;SDS011;14047;50.936;4.654;2022-07-04T08:33:11;4.07;;;0.75;;
26335;SDS011;14047;50.936;4.654;2022-07-04T08:35:36;2.03;;;0.60;;
26335;SDS011;14047;50.936;4.654;2022-07-04T08:38:02;2.95;;;0.75;;
26335;SDS011;14047;50.936;4.654;2022-07-04T08:40:28;2.92;;;0.60;;
26335;SDS011;14047;50.936;4.654;2022-07-04T08:42:56;6.50;;;0.70;;
26335;SDS011;14047;50.936;4.654;2022-07-04T08:45:26;2.35;;;0.60;;
26335;SDS011;14047;50.936;4.654;2022-07-04T08:48:00;2.72;;;0.63;;
26335;SDS011;14047;50.936;4.654;2022-07-04T08:50:34;1.67;;;0.57;;
26335;SDS011;14047;50.936;4.654;2022-07-04T08:53:01;3.53;;;0.50;;
26335;SDS011;14047;50.936;4.654;2022-07-04T08:55:31;1.70;;;0.73;;
26335;SDS011;14047;50.936;4.654;2022-07-04T08:58:16;1.38;;;0.47;;
26335;SDS011;14047;50.936;4.654;2022-07-04T09:00:54;1.92;;;0.82;;
26335;SDS011;14047;50.936;4.654;2022-07-04T09:03:21;4.10;;;0.75;;
26335;SDS011;14047;50.936;4.654;2022-07-04T09:05:47;2.20;;;0.47;;
26335;SDS011;14047;50.936;4.654;2022-07-04T09:08:13;4.57;;;0.40;;
26335;SDS011;14047;50.936;4.654;2022-07-04T09:10:39;3.22;;;0.52;;
26335;SDS011;14047;50.936;4.654;2022-07-04T09:13:05;2.15;;;0.50;;
26335;SDS011;14047;50.936;4.654;2022-07-04T09:15:35;2.70;;;0.70;;
26335;SDS011;14047;50.936;4.654;2022-07-04T09:18:01;2.45;;;0.57;;
26335;SDS011;14047;50.936;4.654;2022-07-04T09:20:28;2.25;;;0.50;;
26335;SDS011;14047;50.936;4.654;2022-07-04T09:22:55;2.03;;;0.52;;
26335;SDS011;14047;50.936;4.654;2022-07-04T09:25:21;3.67;;;0.60;;
26335;SDS011;14047;50.936;4.654;2022-07-04T09:27:49;3.90;;;0.80;;
26335;SDS011;14047;50.936;4.654;2022-07-04T09:30:21;2.55;;;0.60;;
26335;SDS011;14047;50.936;4.654;2022-07-04T09:32:49;3.15;;;0.70;;
26335;SDS011;14047;50.936;4.654;2022-07-04T09:35:21;3.10;;;0.45;;
26335;SDS011;14047;50.936;4.654;2022-07-04T09:37:50;2.92;;;0.70;;
26335;SDS011;14047;50.936;4.654;2022-07-04T09:40:33;1.88;;;0.50;;
26335;SDS011;14047;50.936;4.654;2022-07-04T09:43:23;3.35;;;0.57;;
26335;SDS011;14047;50.936;4.654;2022-07-04T09:45:55;2.85;;;0.70;;
26335;SDS011;14047;50.936;4.654;2022-07-04T09:48:23;3.40;;;0.68;;
26335;SDS011;14047;50.936;4.654;2022-07-04T09:50:49;4.85;;;0.77;;
26335;SDS011;14047;50.936;4.654;2022-07-04T09:53:15;1.65;;;0.50;;
26335;SDS011;14047;50.936;4.654;2022-07-04T09:55:41;2.97;;;0.80;;
26335;SDS011;14047;50.936;4.654;2022-07-04T09:58:10;5.07;;;0.90;;
26335;SDS011;14047;50.936;4.654;2022-07-04T10:00:41;2.30;;;0.65;;
26335;SDS011;14047;50.936;4.654;2022-07-04T10:03:21;5.05;;;1.02;;
26335;SDS011;14047;50.936;4.654;2022-07-04T10:05:48;5.68;;;1.27;;
26335;SDS011;14047;50.936;4.654;2022-07-04T10:08:30;3.40;;;0.60;;
26335;SDS011;14047;50.936;4.654;2022-07-04T10:11:00;3.25;;;0.90;;
26335;SDS011;14047;50.936;4.654;2022-07-04T10:13:26;2.72;;;0.70;;
26335;SDS011;14047;50.936;4.654;2022-07-04T10:15:53;1.98;;;0.70;;
26335;SDS011;14047;50.936;4.654;2022-07-04T10:18:19;3.70;;;0.70;;
26335;SDS011;14047;50.936;4.654;2022-07-04T10:20:47;6.53;;;0.90;;
26335;SDS011;14047;50.936;4.654;2022-07-04T10:23:16;3.38;;;0.80;;
26335;SDS011;14047;50.936;4.654;2022-07-04T10:25:45;4.28;;;0.90;;
26335;SDS011;14047;50.936;4.654;2022-07-04T10:28:11;4.88;;;0.50;;
26335;SDS011;14047;50.936;4.654;2022-07-04T10:30:37;5.15;;;0.80;;
26335;SDS011;14047;50.936;4.654;2022-07-04T10:33:06;8.05;;;1.20;;
26335;SDS011;14047;50.936;4.654;2022-07-04T10:35:52;2.90;;;0.80;;
26335;SDS011;14047;50.936;4.654;2022-07-04T10:38:19;5.05;;;0.90;;
26335;SDS011;14047;50.936;4.654;2022-07-04T10:40:50;6.00;;;0.90;;
26335;SDS011;14047;50.936;4.654;2022-07-04T10:45:51;4.30;;;0.80;;
26335;SDS011;14047;50.936;4.654;2022-07-04T10:48:23;9.15;;;1.65;;
26335;SDS011;14047;50.936;4.654;2022-07-04T10:50:59;4.15;;;1.20;;
26335;SDS011;14047;50.936;4.654;2022-07-04T10:53:26;4.05;;;0.77;;
26335;SDS011;14047;50.936;4.654;2022-07-04T10:55:52;4.57;;;1.00;;
26335;SDS011;14047;50.936;4.654;2022-07-04T11:01:16;7.03;;;0.95;;
26335;SDS011;14047;50.936;4.654;2022-07-04T11:03:50;2.65;;;0.65;;
26335;SDS011;14047;50.936;4.654;2022-07-04T11:09:17;2.78;;;1.05;;
26335;SDS011;14047;50.936;4.654;2022-07-04T11:11:47;3.55;;;1.05;;
26335;SDS011;14047;50.936;4.654;2022-07-04T11:14:34;4.72;;;0.90;;
26335;SDS011;14047;50.936;4.654;2022-07-04T11:17:03;5.95;;;1.02;;
26335;SDS011;14047;50.936;4.654;2022-07-04T11:19:30;3.33;;;0.85;;
26335;SDS011;14047;50.936;4.654;2022-07-04T11:21:56;4.45;;;0.90;;
26335;SDS011;14047;50.936;4.654;2022-07-04T11:24:23;4.68;;;1.05;;
26335;SDS011;14047;50.936;4.654;2022-07-04T11:26:50;6.93;;;1.30;;
26335;SDS011;14047;50.936;4.654;2022-07-04T11:29:16;2.92;;;0.88;;
26335;SDS011;14047;50.936;4.654;2022-07-04T11:31:42;6.78;;;2.08;;
26335;SDS011;14047;50.936;4.654;2022-07-04T11:34:13;5.78;;;0.90;;
26335;SDS011;14047;50.936;4.654;2022-07-04T11:36:41;3.55;;;1.00;;
26335;SDS011;14047;50.936;4.654;2022-07-04T11:39:09;7.35;;;1.35;;
26335;SDS011;14047;50.936;4.654;2022-07-04T11:41:38;5.03;;;1.10;;
26335;SDS011;14047;50.936;4.654;2022-07-04T11:44:30;2.38;;;1.02;;
26335;SDS011;14047;50.936;4.654;2022-07-04T11:49:50;3.38;;;0.90;;
26335;SDS011;14047;50.936;4.654;2022-07-04T11:52:26;3.53;;;0.80;;
26335;SDS011;14047;50.936;4.654;2022-07-04T11:54:54;4.15;;;0.65;;
26335;SDS011;14047;50.936;4.654;2022-07-04T11:57:27;7.05;;;0.90;;
26335;SDS011;14047;50.936;4.654;2022-07-04T12:00:07;4.85;;;0.70;;
26335;SDS011;14047;50.936;4.654;2022-07-04T12:02:40;6.40;;;1.13;;
26335;SDS011;14047;50.936;4.654;2022-07-04T12:05:08;4.68;;;1.25;;
26335;SDS011;14047;50.936;4.654;2022-07-04T12:07:35;3.80;;;1.10;;
26335;SDS011;14047;50.936;4.654;2022-07-04T12:10:22;2.28;;;0.82;;
26335;SDS011;14047;50.936;4.654;2022-07-04T12:12:52;4.03;;;0.93;;
26335;SDS011;14047;50.936;4.654;2022-07-04T12:15:19;1.85;;;0.70;;
26335;SDS011;14047;50.936;4.654;2022-07-04T12:17:48;4.55;;;1.10;;
26335;SDS011;14047;50.936;4.654;2022-07-04T12:20:16;5.05;;;1.30;;
26335;SDS011;14047;50.936;4.654;2022-07-04T12:23:01;3.97;;;1.08;;
26335;SDS011;14047;50.936;4.654;2022-07-04T12:25:28;3.70;;;1.13;;
26335;SDS011;14047;50.936;4.654;2022-07-04T12:27:57;6.57;;;1.30;;
26335;SDS011;14047;50.936;4.654;2022-07-04T12:30:26;3.38;;;1.00;;
26335;SDS011;14047;50.936;4.654;2022-07-04T12:32:56;3.63;;;1.10;;
26335;SDS011;14047;50.936;4.654;2022-07-04T12:40:33;5.45;;;1.10;;
26335;SDS011;14047;50.936;4.654;2022-07-04T12:43:00;4.05;;;1.20;;
26335;SDS011;14047;50.936;4.654;2022-07-04T12:45:40;5.18;;;1.10;;
26335;SDS011;14047;50.936;4.654;2022-07-04T12:48:17;2.72;;;0.90;;
26335;SDS011;14047;50.936;4.654;2022-07-04T12:50:45;3.95;;;0.80;;
26335;SDS011;14047;50.936;4.654;2022-07-04T12:53:11;2.65;;;0.82;;
26335;SDS011;14047;50.936;4.654;2022-07-04T12:55:40;6.82;;;1.13;;
26335;SDS011;14047;50.936;4.654;2022-07-04T12:58:07;6.50;;;1.05;;
26335;SDS011;14047;50.936;4.654;2022-07-04T13:00:34;5.15;;;1.38;;
26335;SDS011;14047;50.936;4.654;2022-07-04T13:03:00;5.13;;;1.00;;
26335;SDS011;14047;50.936;4.654;2022-07-04T13:05:25;2.30;;;1.15;;
26335;SDS011;14047;50.936;4.654;2022-07-04T13:07:52;5.25;;;1.20;;
26335;SDS011;14047;50.936;4.654;2022-07-04T13:10:18;2.35;;;1.10;;
26335;SDS011;14047;50.936;4.654;2022-07-04T13:12:43;4.35;;;1.10;;
26335;SDS011;14047;50.936;4.654;2022-07-04T13:15:09;2.53;;;0.90;;
26335;SDS011;14047;50.936;4.654;2022-07-04T13:17:36;2.90;;;1.00;;
26335;SDS011;14047;50.936;4.654;2022-07-04T13:20:03;4.88;;;1.30;;
26335;SDS011;14047;50.936;4.654;2022-07-04T13:22:29;5.53;;;1.60;;
26335;SDS011;14047;50.936;4.654;2022-07-04T13:24:55;4.18;;;1.30;;
26335;SDS011;14047;50.936;4.654;2022-07-04T13:27:20;4.00;;;1.10;;
26335;SDS011;14047;50.936;4.654;2022-07-04T13:29:46;5.05;;;1.40;;
26335;SDS011;14047;50.936;4.654;2022-07-04T13:32:12;6.57;;;1.33;;
26335;SDS011;14047;50.936;4.654;2022-07-04T13:34:38;4.40;;;1.13;;
26335;SDS011;14047;50.936;4.654;2022-07-04T13:37:04;8.75;;;1.30;;
26335;SDS011;14047;50.936;4.654;2022-07-04T13:39:30;5.07;;;1.35;;
26335;SDS011;14047;50.936;4.654;2022-07-04T13:41:56;8.32;;;1.52;;
26335;SDS011;14047;50.936;4.654;2022-07-04T13:44:22;3.95;;;1.10;;
26335;SDS011;14047;50.936;4.654;2022-07-04T13:46:48;4.38;;;1.25;;
26335;SDS011;14047;50.936;4.654;2022-07-04T13:49:14;3.22;;;1.20;;
26335;SDS011;14047;50.936;4.654;2022-07-04T13:51:40;3.95;;;1.10;;
26335;SDS011;14047;50.936;4.654;2022-07-04T13:54:06;2.53;;;1.08;;
26335;SDS011;14047;50.936;4.654;2022-07-04T13:56:32;2.42;;;0.77;;
26335;SDS011;14047;50.936;4.654;2022-07-04T13:58:58;2.03;;;1.10;;
26335;SDS011;14047;50.936;4.654;2022-07-04T14:01:25;4.00;;;1.10;;
26335;SDS011;14047;50.936;4.654;2022-07-04T14:03:51;4.00;;;1.60;;
26335;SDS011;14047;50.936;4.654;2022-07-04T14:06:17;5.72;;;1.00;;
26335;SDS011;14047;50.936;4.654;2022-07-04T14:08:43;4.30;;;1.15;;
26335;SDS011;14047;50.936;4.654;2022-07-04T14:11:09;3.75;;;1.02;;
26335;SDS011;14047;50.936;4.654;2022-07-04T14:13:35;1.60;;;0.65;;
26335;SDS011;14047;50.936;4.654;2022-07-04T14:16:02;4.32;;;1.00;;
26335;SDS011;14047;50.936;4.654;2022-07-04T14:18:30;2.47;;;0.85;;
26335;SDS011;14047;50.936;4.654;2022-07-04T14:20:55;4.80;;;0.98;;
26335;SDS011;14047;50.936;4.654;2022-07-04T14:23:21;4.57;;;0.93;;
26335;SDS011;14047;50.936;4.654;2022-07-04T14:26:05;4.32;;;0.90;;
26335;SDS011;14047;50.936;4.654;2022-07-04T14:28:32;4.38;;;0.90;;
26335;SDS011;14047;50.936;4.654;2022-07-04T14:30:58;3.53;;;0.70;;
26335;SDS011;14047;50.936;4.654;2022-07-04T14:33:24;3.22;;;0.82;;
26335;SDS011;14047;50.936;4.654;2022-07-04T14:35:50;1.73;;;0.80;;
26335;SDS011;14047;50.936;4.654;2022-07-04T14:38:15;2.83;;;0.82;;
26335;SDS011;14047;50.936;4.654;2022-07-04T14:40:41;3.60;;;0.70;;
26335;SDS011;14047;50.936;4.654;2022-07-04T14:43:10;6.65;;;1.10;;
26335;SDS011;14047;50.936;4.654;2022-07-04T14:45:36;2.50;;;0.73;;
26335;SDS011;14047;50.936;4.654;2022-07-04T14:48:02;4.70;;;0.80;;
26335;SDS011;14047;50.936;4.654;2022-07-04T14:50:28;1.95;;;0.70;;
26335;SDS011;14047;50.936;4.654;2022-07-04T14:52:54;6.10;;;1.17;;
26335;SDS011;14047;50.936;4.654;2022-07-04T14:55:19;4.68;;;1.50;;
26335;SDS011;14047;50.936;4.654;2022-07-04T14:57:45;3.55;;;1.08;;
26335;SDS011;14047;50.936;4.654;2022-07-04T15:00:11;3.05;;;1.00;;
26335;SDS011;14047;50.936;4.654;2022-07-04T15:02:37;4.88;;;1.10;;
26335;SDS011;14047;50.936;4.654;2022-07-04T15:05:02;14.25;;;1.00;;